createdAt,value
2018-03-17T00:00:28.498Z,92784.55
2018-03-17T00:02:56.112Z,92797.66
2018-03-17T00:05:23.664Z,92793.20
2018-03-17T00:07:51.207Z,92803.60
2018-03-17T00:10:18.746Z,92792.50
2018-03-17T00:12:46.296Z,92800.72
2018-03-17T00:15:14.019Z,92811.48
2018-03-17T00:17:41.562Z,92790.86
2018-03-17T00:20:09.136Z,92803.49
2018-03-17T00:22:36.810Z,92782.36
2018-03-17T00:25:04.398Z,92800.21
2018-03-17T00:27:31.943Z,92802.86
2018-03-17T00:29:59.670Z,92795.05
2018-03-17T00:32:27.229Z,92791.64
2018-03-17T00:34:54.771Z,92793.53
2018-03-17T00:37:22.359Z,92785.32
2018-03-17T00:39:49.927Z,92796.95
2018-03-17T00:42:17.476Z,92793.20
2018-03-17T00:44:45.048Z,92796.92
2018-03-17T00:47:12.592Z,92793.70
2018-03-17T00:49:40.138Z,92786.10
2018-03-17T00:52:07.828Z,92783.72
2018-03-17T00:54:35.392Z,92785.46
2018-03-17T00:57:02.942Z,92792.66
2018-03-17T00:59:30.548Z,92783.58
2018-03-17T01:01:58.081Z,92775.62
2018-03-17T01:04:25.631Z,92780.41
2018-03-17T01:06:53.221Z,92791.44
2018-03-17T01:09:20.759Z,92772.11
2018-03-17T01:11:48.294Z,92758.28
2018-03-17T01:14:16.056Z,92770.38
2018-03-17T01:16:43.634Z,92759.15
2018-03-17T01:19:11.173Z,92775.95
2018-03-17T01:21:38.899Z,92747.69
2018-03-17T01:24:06.449Z,92779.72
2018-03-17T01:26:34.002Z,92791.16
2018-03-17T01:29:01.735Z,92762.64
2018-03-17T01:31:29.279Z,92766.91
2018-03-17T01:33:56.819Z,92767.06
2018-03-17T01:36:24.386Z,92764.77
2018-03-17T01:38:51.923Z,92762.98
2018-03-17T01:41:19.503Z,92757.72
2018-03-17T01:43:47.095Z,92764.69
2018-03-17T01:46:14.670Z,92767.70
2018-03-17T01:48:42.211Z,92761.24
2018-03-17T01:51:09.936Z,92768.62
2018-03-17T01:53:37.475Z,92762.11
2018-03-17T01:56:05.015Z,92761.88
2018-03-17T01:58:32.898Z,92772.16
2018-03-17T02:01:00.444Z,92766.41
2018-03-17T02:03:28.004Z,92776.98
2018-03-17T02:05:55.593Z,92765.45
2018-03-17T02:08:23.144Z,92770.36
2018-03-17T02:10:50.686Z,92758.77
2018-03-17T02:13:18.407Z,92768.87
2018-03-17T02:15:45.958Z,92748.79
2018-03-17T02:18:13.501Z,92772.45
2018-03-17T02:20:41.215Z,92762.88
2018-03-17T02:23:08.772Z,92762.28
2018-03-17T02:25:36.334Z,92751.17
2018-03-17T02:28:04.229Z,92764.12
2018-03-17T02:30:31.766Z,92768.28
2018-03-17T02:32:59.325Z,92768.30
2018-03-17T02:35:27.216Z,92780.45
2018-03-17T02:37:54.765Z,92770.55
2018-03-17T02:40:22.303Z,92763.81
2018-03-17T02:42:49.928Z,92762.16
2018-03-17T02:45:17.477Z,92757.23
2018-03-17T02:47:45.062Z,92764.73
2018-03-17T02:50:12.731Z,92767.82
2018-03-17T02:52:40.273Z,92767.20
2018-03-17T02:55:08.615Z,92762.02
2018-03-17T02:57:36.177Z,92757.61
2018-03-17T03:00:03.779Z,92766.81
2018-03-17T03:02:31.352Z,92763.11
2018-03-17T03:04:58.939Z,92754.46
2018-03-17T03:07:26.493Z,92759.95
2018-03-17T03:09:54.120Z,92765.69
2018-03-17T03:12:21.844Z,92765.36
2018-03-17T03:14:49.391Z,92769.99
2018-03-17T03:17:16.934Z,92781.84
2018-03-17T03:19:44.663Z,92782.50
2018-03-17T03:22:12.214Z,92776.14
2018-03-17T03:24:39.755Z,92778.18
2018-03-17T03:27:07.484Z,92785.22
2018-03-17T03:29:35.030Z,92791.32
2018-03-17T03:32:02.592Z,92784.45
2018-03-17T03:34:30.180Z,92789.30
2018-03-17T03:36:57.732Z,92778.53
2018-03-17T03:39:25.266Z,92784.39
2018-03-17T03:41:52.930Z,92784.97
2018-03-17T03:44:20.462Z,92782.16
2018-03-17T03:46:48.006Z,92768.10
2018-03-17T03:49:15.603Z,92779.02
2018-03-17T03:51:43.447Z,92778.23
2018-03-17T03:54:11.039Z,92784.16
2018-03-17T03:56:38.770Z,92777.63
2018-03-17T03:59:06.323Z,92770.97
2018-03-17T04:01:33.863Z,92783.05
2018-03-17T04:04:01.997Z,92773.61
2018-03-17T04:06:29.577Z,92785.20
2018-03-17T04:08:57.112Z,92765.66
2018-03-17T04:11:24.821Z,92768.95
2018-03-17T04:13:52.362Z,92763.94
2018-03-17T04:16:19.901Z,92763.96
2018-03-17T04:18:47.470Z,92768.13
2018-03-17T04:21:15.029Z,92761.69
2018-03-17T04:23:42.586Z,92761.27
2018-03-17T04:26:10.512Z,92769.70
2018-03-17T04:28:38.111Z,92766.77
2018-03-17T04:31:05.654Z,92763.89
2018-03-17T04:33:33.573Z,92757.33
2018-03-17T04:36:01.123Z,92752.81
2018-03-17T04:38:28.661Z,92761.58
2018-03-17T04:40:56.387Z,92766.55
2018-03-17T04:43:23.930Z,92768.56
2018-03-17T04:45:51.479Z,92770.56
2018-03-17T04:48:19.395Z,92756.06
2018-03-17T04:50:46.941Z,92759.28
2018-03-17T04:53:14.484Z,92739.56
2018-03-17T04:55:42.076Z,92753.53
2018-03-17T04:58:09.622Z,92742.28
2018-03-17T05:00:37.174Z,92748.34
2018-03-17T05:03:04.759Z,92749.98
2018-03-17T05:05:32.331Z,92753.15
2018-03-17T05:07:59.884Z,92752.57
2018-03-17T05:10:27.446Z,92744.65
2018-03-17T05:12:55.018Z,92742.78
2018-03-17T05:15:22.714Z,92753.44
2018-03-17T05:17:50.261Z,92742.48
2018-03-17T05:20:17.820Z,92741.92
2018-03-17T05:22:45.542Z,92728.89
2018-03-17T05:25:13.081Z,92730.39
2018-03-17T05:27:40.632Z,92715.84
2018-03-17T05:30:08.296Z,92715.53
2018-03-17T05:32:35.841Z,92708.88
2018-03-17T05:35:03.406Z,92710.83
2018-03-17T05:37:31.018Z,92700.46
2018-03-17T05:39:58.589Z,92700.90
2018-03-17T05:42:26.156Z,92698.45
2018-03-17T05:44:53.785Z,92704.66
2018-03-17T05:47:21.343Z,92702.16
2018-03-17T05:49:48.895Z,92706.61
2018-03-17T05:52:16.446Z,92698.75
2018-03-17T05:54:44.011Z,92706.02
2018-03-17T05:57:11.580Z,92690.03
2018-03-17T05:59:39.131Z,92711.55
2018-03-17T06:02:06.674Z,92700.61
2018-03-17T06:04:34.269Z,92697.47
2018-03-17T06:07:01.872Z,92678.90
2018-03-17T06:09:29.427Z,92679.82
2018-03-17T06:11:57.323Z,92680.05
2018-03-17T06:14:24.878Z,92681.37
2018-03-17T06:16:52.433Z,92679.56
2018-03-17T06:19:20.173Z,92685.11
2018-03-17T06:21:47.724Z,92699.81
2018-03-17T06:24:15.291Z,92695.91
2018-03-17T06:26:43.018Z,92699.30
2018-03-17T06:29:10.567Z,92706.61
2018-03-17T06:31:38.130Z,92713.06
2018-03-17T06:34:06.051Z,92720.69
2018-03-17T06:36:33.612Z,92705.12
2018-03-17T06:39:01.168Z,92715.33
2018-03-17T06:41:28.770Z,92705.30
2018-03-17T06:43:56.320Z,92701.28
2018-03-17T06:46:23.876Z,92711.77
2018-03-17T06:48:51.579Z,92698.16
2018-03-17T06:51:19.156Z,92686.70
2018-03-17T06:53:46.707Z,92687.97
2018-03-17T06:56:14.450Z,92673.12
2018-03-17T06:58:42.008Z,92681.34
2018-03-17T07:01:09.585Z,92679.58
2018-03-17T07:03:37.293Z,92689.21
2018-03-17T07:06:04.854Z,92698.72
2018-03-17T07:08:32.422Z,92683.33
2018-03-17T07:11:00.022Z,92687.79
2018-03-17T07:13:27.570Z,92686.66
2018-03-17T07:15:55.135Z,92709.48
2018-03-17T07:18:22.730Z,92709.34
2018-03-17T07:20:50.274Z,92705.62
2018-03-17T07:23:17.826Z,92700.84
2018-03-17T07:25:45.518Z,92699.30
2018-03-17T07:28:13.091Z,92697.14
2018-03-17T07:30:40.637Z,92692.78
2018-03-17T07:33:08.371Z,92689.66
2018-03-17T07:35:35.929Z,92678.16
2018-03-17T07:38:03.495Z,92683.87
2018-03-17T07:40:31.112Z,92677.47
2018-03-17T07:42:58.677Z,92680.18
2018-03-17T07:45:26.270Z,92669.70
2018-03-17T07:47:53.850Z,92685.03
2018-03-17T07:50:21.402Z,92676.12
2018-03-17T07:52:48.968Z,92682.52
2018-03-17T07:55:16.565Z,92667.91
2018-03-17T07:57:44.161Z,92679.31
2018-03-17T08:00:11.711Z,92673.65
2018-03-17T08:02:39.394Z,92684.41
2018-03-17T08:05:06.956Z,92655.70
2018-03-17T08:07:34.519Z,92654.27
2018-03-17T08:10:02.118Z,92647.72
2018-03-17T08:12:29.678Z,92665.14
2018-03-17T08:14:57.243Z,92663.35
2018-03-17T08:17:24.840Z,92662.37
2018-03-17T08:19:52.407Z,92670.09
2018-03-17T08:22:20.009Z,92647.69
2018-03-17T08:24:47.600Z,92644.88
2018-03-17T08:27:15.161Z,92632.94
2018-03-17T08:29:42.719Z,92642.73
2018-03-17T08:32:10.440Z,92611.92
2018-03-17T08:34:38.021Z,92593.74
2018-03-17T08:37:06.521Z,92608.63
2018-03-17T08:39:34.249Z,92592.45
2018-03-17T08:42:01.804Z,92561.70
2018-03-17T08:44:29.350Z,92550.48
2018-03-17T08:46:56.940Z,92545.88
2018-03-17T08:49:24.494Z,92573.95
2018-03-17T08:51:52.066Z,92569.24
2018-03-17T08:54:19.969Z,92568.66
2018-03-17T08:56:47.559Z,92556.03
2018-03-17T08:59:15.131Z,92552.75
2018-03-17T09:01:43.054Z,92550.71
2018-03-17T09:04:10.654Z,92547.28
2018-03-17T09:06:38.193Z,92528.11
2018-03-17T09:09:06.140Z,92530.39
2018-03-17T09:11:33.674Z,92525.50
2018-03-17T09:14:01.226Z,92514.70
2018-03-17T09:16:28.963Z,92512.18
2018-03-17T09:18:56.521Z,92492.91
2018-03-17T09:21:24.095Z,92495.16
2018-03-17T09:23:51.973Z,92480.16
2018-03-17T09:26:19.517Z,92463.32
2018-03-17T09:28:47.062Z,92456.55
2018-03-17T09:31:14.797Z,92456.70
2018-03-17T09:33:42.346Z,92468.93
2018-03-17T09:36:09.899Z,92468.51
2018-03-17T09:38:37.509Z,92463.47
2018-03-17T09:41:05.063Z,92458.33
2018-03-17T09:43:32.617Z,92476.66
2018-03-17T09:46:00.305Z,92445.88
2018-03-17T09:48:27.858Z,92414.55
2018-03-17T09:50:55.412Z,92429.47
2018-03-17T09:53:23.007Z,92414.59
2018-03-17T09:55:50.568Z,92402.64
2018-03-17T09:58:18.199Z,92426.41
2018-03-17T10:00:45.845Z,92413.84
2018-03-17T10:03:13.392Z,92418.86
2018-03-17T10:05:40.941Z,92415.30
2018-03-17T10:08:08.701Z,92396.41
2018-03-17T10:10:36.254Z,92382.13
2018-03-17T10:13:03.809Z,92392.82
2018-03-17T10:15:31.395Z,92391.50
2018-03-17T10:17:58.964Z,92387.94
2018-03-17T10:20:26.514Z,92382.06
2018-03-17T10:22:54.097Z,92357.25
2018-03-17T10:25:21.668Z,92357.39
2018-03-17T10:27:49.221Z,92333.95
2018-03-17T10:30:16.791Z,92310.78
2018-03-17T10:32:45.799Z,92296.36
2018-03-17T10:35:13.346Z,92290.62
2018-03-17T10:37:40.939Z,92275.62
2018-03-17T10:40:08.523Z,92263.64
2018-03-17T10:42:36.092Z,92251.97
2018-03-17T10:45:03.727Z,92242.96
2018-03-17T10:47:31.283Z,92248.48
2018-03-17T10:49:58.850Z,92232.97
2018-03-17T10:52:26.438Z,92234.37
2018-03-17T10:54:54.011Z,92234.42
2018-03-17T10:57:21.867Z,92215.23
2018-03-17T10:59:49.435Z,92208.09
2018-03-17T11:02:17.014Z,92203.00
2018-03-17T11:04:44.592Z,92196.58
2018-03-17T11:07:12.144Z,92223.16
2018-03-17T11:09:39.701Z,92203.75
2018-03-17T11:12:07.591Z,92211.30
2018-03-17T11:14:35.152Z,92202.01
2018-03-17T11:17:03.604Z,92208.53
2018-03-17T11:19:31.295Z,92214.80
2018-03-17T11:21:58.848Z,92204.55
2018-03-17T11:24:26.398Z,92215.00
2018-03-17T11:26:54.158Z,92211.00
2018-03-17T11:29:21.713Z,92240.41
2018-03-17T11:31:49.264Z,92230.56
2018-03-17T11:34:16.878Z,92245.30
2018-03-17T11:36:44.440Z,92244.64
2018-03-17T11:39:11.995Z,92246.86
2018-03-17T11:41:39.600Z,92231.98
2018-03-17T11:44:07.159Z,92195.08
2018-03-17T11:46:34.743Z,92187.55
2018-03-17T11:49:02.489Z,92161.31
2018-03-17T11:51:30.047Z,92195.36
2018-03-17T11:53:57.628Z,92149.61
2018-03-17T11:56:25.236Z,92139.90
2018-03-17T11:58:52.795Z,92134.46
2018-03-17T12:01:20.359Z,92120.75
2018-03-17T12:03:48.293Z,92112.22
2018-03-17T12:06:15.835Z,92081.11
2018-03-17T12:08:43.382Z,92093.16
2018-03-17T12:11:11.192Z,92083.52
2018-03-17T12:13:38.750Z,92065.48
2018-03-17T12:16:06.305Z,92063.47
2018-03-17T12:18:34.237Z,92085.02
2018-03-17T12:21:01.779Z,92095.80
2018-03-17T12:23:29.326Z,92056.85
2018-03-17T12:25:57.324Z,92072.41
2018-03-17T12:28:24.899Z,92024.39
2018-03-17T12:30:52.449Z,92088.31
2018-03-17T12:33:20.335Z,92075.62
2018-03-17T12:35:47.888Z,92091.80
2018-03-17T12:38:15.442Z,92089.89
2018-03-17T12:40:43.019Z,92062.30
2018-03-17T12:43:10.564Z,92075.63
2018-03-17T12:45:38.160Z,92087.11
2018-03-17T12:48:05.748Z,92066.53
2018-03-17T12:50:33.306Z,92031.98
2018-03-17T12:53:00.859Z,92069.46
2018-03-17T12:55:28.774Z,92059.52
2018-03-17T12:57:56.343Z,92051.71
2018-03-17T13:00:23.905Z,92066.92
2018-03-17T13:02:51.585Z,92047.36
2018-03-17T13:05:19.155Z,92060.18
2018-03-17T13:07:46.727Z,92053.97
2018-03-17T13:10:14.462Z,92026.22
2018-03-17T13:12:42.231Z,92033.23
2018-03-17T13:15:09.811Z,92013.56
2018-03-17T13:17:37.740Z,91992.99
2018-03-17T13:20:05.327Z,92016.19
2018-03-17T13:22:44.439Z,92019.21
2018-03-17T13:25:12.031Z,92054.61
2018-03-17T13:27:51.513Z,92051.66
2018-03-17T13:30:19.102Z,92018.73
2018-03-17T13:32:54.250Z,92021.19
2018-03-17T13:35:21.834Z,92011.56
2018-03-17T13:37:49.395Z,91981.03
2018-03-17T13:40:28.718Z,91998.16
2018-03-17T13:42:56.274Z,91977.76
2018-03-17T13:45:23.826Z,91985.23
2018-03-17T13:47:51.646Z,91976.31
2018-03-17T13:50:19.192Z,91995.84
2018-03-17T13:52:46.745Z,91996.94
2018-03-17T13:55:14.499Z,92012.93
2018-03-17T13:57:42.052Z,91991.50
2018-03-17T14:00:09.618Z,91988.48
2018-03-17T14:02:37.352Z,91995.08
2018-03-17T14:05:04.968Z,91956.46
2018-03-17T14:07:32.525Z,91986.30
2018-03-17T14:10:00.288Z,91978.75
2018-03-17T14:12:27.832Z,91988.17
2018-03-17T14:14:55.382Z,91972.05
2018-03-17T14:17:23.278Z,91985.14
2018-03-17T14:19:50.835Z,91960.20
2018-03-17T14:22:18.385Z,91985.72
2018-03-17T14:24:46.072Z,91971.38
2018-03-17T14:27:13.640Z,91970.27
2018-03-17T14:29:41.197Z,91986.17
2018-03-17T14:32:08.786Z,91971.06
2018-03-17T14:34:36.340Z,91977.02
2018-03-17T14:37:03.937Z,91988.84
2018-03-17T14:39:31.904Z,92000.00
2018-03-17T14:41:59.457Z,91975.74
2018-03-17T14:44:27.002Z,92006.66
2018-03-17T14:46:54.601Z,91989.97
2018-03-17T14:49:22.158Z,92016.20
2018-03-17T14:51:49.717Z,91984.47
2018-03-17T14:54:17.462Z,91982.63
2018-03-17T14:56:45.022Z,91998.52
2018-03-17T14:59:12.570Z,91997.47
2018-03-17T15:01:40.170Z,91964.67
2018-03-17T15:04:07.711Z,91982.54
2018-03-17T15:06:35.256Z,91971.39
2018-03-17T15:09:02.905Z,91974.52
2018-03-17T15:11:30.461Z,91971.78
2018-03-17T15:13:58.022Z,91955.65
2018-03-17T15:16:25.603Z,91974.30
2018-03-17T15:18:53.148Z,91957.66
2018-03-17T15:21:20.754Z,91944.87
2018-03-17T15:23:48.637Z,91945.56
2018-03-17T15:26:16.189Z,91956.92
2018-03-17T15:28:43.744Z,91898.03
2018-03-17T15:31:11.346Z,91927.81
2018-03-17T15:33:38.894Z,91940.08
2018-03-17T15:36:06.450Z,91932.92
2018-03-17T15:38:34.192Z,91928.63
2018-03-17T15:41:01.765Z,91915.34
2018-03-17T15:43:29.313Z,91942.78
2018-03-17T15:45:57.182Z,91920.27
2018-03-17T15:48:24.726Z,91916.77
2018-03-17T15:50:52.315Z,91920.96
2018-03-17T15:53:19.872Z,91920.47
2018-03-17T15:55:47.423Z,91921.55
2018-03-17T15:58:15.710Z,91905.20
2018-03-17T16:00:43.277Z,91918.12
2018-03-17T16:03:10.863Z,91901.98
2018-03-17T16:05:38.441Z,91903.75
2018-03-17T16:08:05.993Z,91917.35
2018-03-17T16:10:33.556Z,91901.92
2018-03-17T16:13:01.347Z,91916.91
2018-03-17T16:15:28.896Z,91941.12
2018-03-17T16:17:56.450Z,91927.06
2018-03-17T16:20:24.068Z,91936.66
2018-03-17T16:22:51.654Z,91941.89
2018-03-17T16:25:19.209Z,91940.09
2018-03-17T16:27:46.810Z,91936.10
2018-03-17T16:30:14.358Z,91951.77
2018-03-17T16:32:41.906Z,91973.23
2018-03-17T16:35:09.798Z,91969.15
2018-03-17T16:37:37.338Z,91969.47
2018-03-17T16:40:04.946Z,91983.84
2018-03-17T16:42:32.534Z,91986.59
2018-03-17T16:45:00.085Z,91995.19
2018-03-17T16:47:27.631Z,91998.47
2018-03-17T16:49:55.252Z,92018.77
2018-03-17T16:52:22.851Z,91995.47
2018-03-17T16:54:50.402Z,91986.84
2018-03-17T16:57:18.274Z,92024.52
2018-03-17T16:59:45.829Z,92012.87
2018-03-17T17:02:13.386Z,92038.33
2018-03-17T17:04:40.990Z,92022.56
2018-03-17T17:07:08.554Z,92038.20
2018-03-17T17:09:36.111Z,92007.30
2018-03-17T17:12:03.855Z,92012.84
2018-03-17T17:14:31.418Z,91999.94
2018-03-17T17:16:58.985Z,92040.88
2018-03-17T17:19:26.874Z,92013.57
2018-03-17T17:21:54.435Z,92037.33
2018-03-17T17:24:22.001Z,92022.50
2018-03-17T17:26:49.649Z,92057.23
2018-03-17T17:29:17.195Z,92055.16
2018-03-17T17:31:44.754Z,92066.64
2018-03-17T17:34:12.355Z,92058.86
2018-03-17T17:36:39.938Z,92053.78
2018-03-17T17:39:07.497Z,92062.21
2018-03-17T17:41:35.223Z,92060.00
2018-03-17T17:44:02.797Z,92068.56
2018-03-17T17:46:30.361Z,92076.89
2018-03-17T17:48:58.059Z,92059.80
2018-03-17T17:51:25.654Z,92057.41
2018-03-17T17:53:53.211Z,92073.84
2018-03-17T17:56:21.007Z,92072.23
2018-03-17T17:58:48.548Z,92065.83
2018-03-17T18:01:16.120Z,92079.04
2018-03-17T18:03:43.702Z,92063.16
2018-03-17T18:06:11.319Z,92048.53
2018-03-17T18:08:38.884Z,92098.48
2018-03-17T18:11:06.603Z,92089.74
2018-03-17T18:13:34.157Z,92067.56
2018-03-17T18:16:01.695Z,92088.73
2018-03-17T18:18:29.435Z,92097.76
2018-03-17T18:20:56.985Z,92110.86
2018-03-17T18:23:24.538Z,92093.09
2018-03-17T18:25:52.432Z,92108.33
2018-03-17T18:28:19.986Z,92117.20
2018-03-17T18:30:47.541Z,92103.49
2018-03-17T18:33:15.112Z,92107.54
2018-03-17T18:35:42.676Z,92087.95
2018-03-17T18:38:10.228Z,92100.73
2018-03-17T18:40:37.798Z,92062.02
2018-03-17T18:43:05.353Z,92099.63
2018-03-17T18:45:32.900Z,92099.89
2018-03-17T18:48:00.494Z,92120.33
2018-03-17T18:50:28.061Z,92111.56
2018-03-17T18:52:55.625Z,92109.48
2018-03-17T18:55:23.963Z,92154.80
2018-03-17T18:57:51.591Z,92115.88
2018-03-17T19:00:19.173Z,92145.25
2018-03-17T19:02:46.798Z,92094.25
2018-03-17T19:05:14.366Z,92098.11
2018-03-17T19:07:41.943Z,92098.38
2018-03-17T19:10:09.703Z,92091.84
2018-03-17T19:12:37.261Z,92090.28
2018-03-17T19:15:04.862Z,92067.73
2018-03-17T19:17:32.548Z,92081.86
2018-03-17T19:20:00.113Z,92076.42
2018-03-17T19:22:27.664Z,92070.19
2018-03-17T19:24:55.547Z,92040.30
2018-03-17T19:27:23.128Z,92071.20
2018-03-17T19:29:50.685Z,92078.78
2018-03-17T19:32:18.394Z,92064.91
2018-03-17T19:34:45.946Z,92061.74
2018-03-17T19:37:13.507Z,92078.55
2018-03-17T19:39:41.269Z,92047.78
2018-03-17T19:42:08.880Z,92068.94
2018-03-17T19:44:36.445Z,92076.35
2018-03-17T19:47:04.214Z,92057.07
2018-03-17T19:49:31.798Z,92065.95
2018-03-17T19:51:59.348Z,92055.72
2018-03-17T19:54:26.947Z,92084.80
2018-03-17T19:56:54.645Z,92080.91
2018-03-17T19:59:22.219Z,92038.22
2018-03-17T20:01:49.833Z,92020.92
2018-03-17T20:04:17.405Z,92033.22
2018-03-17T20:06:44.999Z,92051.84
2018-03-17T20:09:12.737Z,92032.22
2018-03-17T20:11:40.382Z,92039.08
2018-03-17T20:14:07.983Z,92038.23
2018-03-17T20:16:35.584Z,92044.25
2018-03-17T20:19:03.168Z,92033.42
2018-03-17T20:21:30.740Z,92021.44
2018-03-17T20:23:58.348Z,92018.23
2018-03-17T20:26:25.924Z,92005.96
2018-03-17T20:28:53.507Z,91998.35
2018-03-17T20:31:21.317Z,91991.66
2018-03-17T20:33:48.888Z,92008.30
2018-03-17T20:36:16.473Z,92036.06
2018-03-17T20:38:44.067Z,91987.92
2018-03-17T20:41:11.627Z,92011.55
2018-03-17T20:43:39.183Z,92013.58
2018-03-17T20:46:06.868Z,92002.28
2018-03-17T20:48:34.445Z,91988.84
2018-03-17T20:51:02.010Z,91971.12
2018-03-17T20:53:29.574Z,91960.68
2018-03-17T20:55:57.155Z,91979.45
2018-03-17T20:58:25.217Z,91957.38
2018-03-17T21:00:52.777Z,91963.17
2018-03-17T21:03:20.339Z,91950.50
2018-03-17T21:05:48.038Z,91943.25
2018-03-17T21:08:15.599Z,91938.52
2018-03-17T21:10:43.188Z,91934.27
2018-03-17T21:13:10.786Z,91960.08
2018-03-17T21:15:38.358Z,91945.73
2018-03-17T21:18:05.941Z,91940.36
2018-03-17T21:20:33.712Z,91946.53
2018-03-17T21:23:01.266Z,91934.02
2018-03-17T21:25:28.816Z,91940.10
2018-03-17T21:27:56.405Z,91939.09
2018-03-17T21:30:23.952Z,91924.99
2018-03-17T21:32:51.544Z,91957.41
2018-03-17T21:35:19.150Z,91943.16
2018-03-17T21:37:46.700Z,91917.45
2018-03-17T21:40:14.258Z,91924.08
2018-03-17T21:42:41.832Z,91950.70
2018-03-17T21:45:09.379Z,91929.31
2018-03-17T21:47:36.931Z,91952.02
2018-03-17T21:50:04.815Z,91932.41
2018-03-17T21:52:32.368Z,91907.05
2018-03-17T21:54:59.928Z,91921.20
2018-03-17T21:57:27.512Z,91895.40
2018-03-17T21:59:55.067Z,91896.45
2018-03-17T22:02:22.686Z,91916.09
2018-03-17T22:04:50.292Z,91903.66
2018-03-17T22:07:17.900Z,91905.94
2018-03-17T22:09:45.792Z,91895.02
2018-03-17T22:12:13.695Z,91897.38
2018-03-17T22:14:41.278Z,91886.83
2018-03-17T22:17:08.854Z,91885.03
2018-03-17T22:19:36.451Z,91890.06
2018-03-17T22:22:04.013Z,91904.47
2018-03-17T22:24:31.577Z,91858.98
2018-03-17T22:26:59.151Z,91859.56
2018-03-17T22:29:26.693Z,91887.54
2018-03-17T22:31:54.337Z,91887.08
2018-03-17T22:34:21.864Z,91890.43
2018-03-17T22:36:49.408Z,91879.94
2018-03-17T22:39:17.000Z,91880.04
2018-03-17T22:41:44.726Z,91881.55
2018-03-17T22:44:12.284Z,91888.54
2018-03-17T22:46:39.853Z,91877.69
2018-03-17T22:49:07.541Z,91890.00
2018-03-17T22:51:35.105Z,91874.17
2018-03-17T22:54:02.656Z,91865.66
2018-03-17T22:56:30.435Z,91838.75
2018-03-17T22:58:57.981Z,91848.25
2018-03-17T23:01:25.576Z,91873.84
2018-03-17T23:03:53.312Z,91889.02
2018-03-17T23:06:20.861Z,91877.61
2018-03-17T23:08:48.401Z,91918.44
2018-03-17T23:11:16.125Z,91865.41
2018-03-17T23:13:43.691Z,91882.89
2018-03-17T23:16:11.252Z,91867.95
2018-03-17T23:18:38.824Z,91860.69
2018-03-17T23:21:06.399Z,91902.25
2018-03-17T23:23:33.949Z,91898.66
2018-03-17T23:26:01.646Z,91889.45
2018-03-17T23:28:29.216Z,91899.79
2018-03-17T23:30:56.776Z,91904.26
2018-03-17T23:33:24.370Z,91906.87
2018-03-17T23:35:51.924Z,91911.53
2018-03-17T23:38:19.470Z,91923.66
2018-03-17T23:40:47.220Z,91919.19
2018-03-17T23:43:14.808Z,91913.98
2018-03-17T23:45:42.409Z,91905.01
2018-03-17T23:48:10.033Z,91883.89
2018-03-17T23:50:37.611Z,91915.71
2018-03-17T23:53:05.199Z,91911.16
2018-03-17T23:55:32.916Z,91902.24
2018-03-17T23:58:00.498Z,91930.35
